Time;durP1;ratioP1;P1;durP2;ratioP2;P2;SDS_P1;SDS_P2;PMS_P1;PMS_P2;Temp;Humidity;BMP_temperature;BMP_pressure;BME280_temperature;BME280_humidity;BME280_pressure;Samples;Min_cycle;Max_cycle;Signal;HPM_P1;HPM_P2
2022/05/09 00:01:38;;;;;;;1.95;0.95;;;;;;;11.05;100.00;100838.44;7389600;19;20014;-58
2022/05/09 00:04:04;;;;;;;15.02;1.30;;;;;;;11.02;100.00;100833.75;7390546;19;20142;-58
2022/05/09 00:06:31;;;;;;;1.65;0.98;;;;;;;10.99;100.00;100831.91;7388682;19;20018;-58
2022/05/09 00:08:57;;;;;;;2.28;1.05;;;;;;;10.97;100.00;100839.16;7388516;19;20010;-58
2022/05/09 00:11:23;;;;;;;3.67;1.02;;;;;;;10.96;100.00;100827.22;7390661;19;20007;-58
2022/05/09 00:13:49;;;;;;;3.53;1.60;;;;;;;10.95;100.00;100822.91;7390372;19;20016;-59
2022/05/09 00:16:16;;;;;;;1.05;0.90;;;;;;;10.95;100.00;100825.69;7389626;19;20074;-58
2022/05/09 00:18:42;;;;;;;0.63;0.63;;;;;;;10.97;100.00;100825.22;7390881;19;20355;-59
2022/05/09 00:21:08;;;;;;;1.95;0.88;;;;;;;10.97;100.00;100822.44;7390424;19;20007;-58
2022/05/09 00:23:35;;;;;;;2.08;0.93;;;;;;;10.96;100.00;100815.31;7389697;19;20011;-58
2022/05/09 00:26:01;;;;;;;0.60;0.60;;;;;;;10.96;100.00;100818.09;7392419;19;20022;-59
2022/05/09 00:28:29;;;;;;;2.75;1.27;;;;;;;11.01;100.00;100811.94;7388005;19;20009;-58
2022/05/09 00:30:58;;;;;;;1.67;1.40;;;;;;;10.98;100.00;100807.28;7389808;19;20405;-58
2022/05/09 00:33:24;;;;;;;2.63;0.77;;;;;;;10.95;100.00;100813.75;7389894;19;20109;-59
2022/05/09 00:35:51;;;;;;;1.70;1.05;;;;;;;10.92;100.00;100804.28;7389826;19;20013;-58
2022/05/09 00:38:17;;;;;;;6.00;1.25;;;;;;;10.93;100.00;100802.28;7388566;19;20033;-59
2022/05/09 00:41:28;;;;;;;1.05;1.05;;;;;;;10.91;100.00;100802.75;7389198;19;20459;-58
2022/05/09 00:43:33;;;;;;;1.00;0.95;;;;;;;10.86;100.00;100805.31;7389486;19;20014;-58
2022/05/09 00:46:02;;;;;;;;;;;;;;;10.88;100.00;100800.06;7389745;19;20054;-58
2022/05/09 00:48:28;;;;;;;2.15;1.33;;;;;;;10.92;100.00;100797.94;7389347;19;19926;-58
2022/05/09 00:50:56;;;;;;;1.63;0.93;;;;;;;10.85;100.00;100796.19;7387612;19;20520;-58
2022/05/09 00:53:25;;;;;;;3.35;0.80;;;;;;;10.79;100.00;100797.22;7388901;19;20007;-58
2022/05/09 00:55:56;;;;;;;1.65;0.93;;;;;;;10.76;100.00;100796.16;7391185;19;20038;-58
2022/05/09 00:58:31;;;;;;;1.67;0.70;;;;;;;10.75;100.00;100788.22;7389681;19;20019;-58
2022/05/09 01:00:57;;;;;;;1.15;0.88;;;;;;;10.71;100.00;100795.94;7388769;19;20010;-58
2022/05/09 01:03:42;;;;;;;1.25;0.65;;;;;;;10.72;100.00;100791.94;7388929;19;20354;-58
2022/05/09 01:06:09;;;;;;;1.98;1.70;;;;;;;10.72;100.00;100783.56;7386698;19;20006;-58
2022/05/09 01:08:36;;;;;;;0.98;0.65;;;;;;;10.65;100.00;100785.38;7388189;19;20011;-58
2022/05/09 01:11:05;;;;;;;2.03;1.30;;;;;;;10.74;100.00;100776.31;7387267;19;20147;-58
2022/05/09 01:13:34;;;;;;;3.63;0.80;;;;;;;10.78;100.00;100773.41;7392223;19;20021;-58
2022/05/09 01:16:03;;;;;;;0.52;0.52;;;;;;;10.77;100.00;100775.41;7395482;19;20014;-59
2022/05/09 01:18:29;;;;;;;1.38;1.25;;;;;;;10.66;100.00;100770.22;7395203;19;20758;-58
2022/05/09 01:20:56;;;;;;;0.25;0.25;;;;;;;10.68;100.00;100763.44;7396083;19;20024;-58
2022/05/09 01:23:22;;;;;;;2.20;2.03;;;;;;;10.63;100.00;100759.97;7395232;19;20007;-58
2022/05/09 01:25:48;;;;;;;6.38;1.20;;;;;;;10.72;100.00;100755.72;7396671;19;20037;-59
2022/05/09 01:28:14;;;;;;;4.57;1.27;;;;;;;10.72;100.00;100748.13;7395664;19;20026;-58
2022/05/09 01:31:01;;;;;;;3.35;2.10;;;;;;;10.71;100.00;100759.72;7398154;19;20014;-59
2022/05/09 01:33:36;;;;;;;1.85;0.80;;;;;;;10.75;100.00;100754.78;7394851;19;20011;-58
2022/05/09 01:36:15;;;;;;;1.73;0.85;;;;;;;10.68;100.00;100755.06;7395512;19;20028;-58
2022/05/09 01:38:46;;;;;;;0.93;0.65;;;;;;;10.58;100.00;100757.78;7395054;19;20011;-58
2022/05/09 01:41:13;;;;;;;2.88;1.10;;;;;;;10.38;100.00;100754.53;7395078;19;20007;-58
2022/05/09 01:43:42;;;;;;;1.05;0.70;;;;;;;10.34;100.00;100759.47;7394579;19;20014;-58
2022/05/09 01:46:13;;;;;;;1.05;0.95;;;;;;;10.59;100.00;100756.53;7394665;19;20035;-58
2022/05/09 01:51:24;;;;;;;3.50;1.38;;;;;;;10.79;100.00;100772.94;7392454;19;19918;-58
2022/05/09 01:53:52;;;;;;;3.80;1.08;;;;;;;10.77;100.00;100771.81;7391812;19;20010;-58
2022/05/09 01:56:21;;;;;;;1.77;0.80;;;;;;;10.71;100.00;100768.88;7394432;19;20348;-58
2022/05/09 01:58:47;;;;;;;1.85;1.13;;;;;;;10.71;100.00;100765.28;7391614;19;20014;-59
2022/05/09 02:01:16;;;;;;;0.55;0.55;;;;;;;10.65;100.00;100770.69;7391954;19;20470;-58
2022/05/09 02:03:45;;;;;;;2.15;0.60;;;;;;;10.66;100.00;100767.44;7391297;19;20018;-59
2022/05/09 02:06:17;;;;;;;1.65;1.08;;;;;;;10.75;100.00;100771.50;7391419;19;20007;-59
2022/05/09 02:08:44;;;;;;;1.08;1.00;;;;;;;10.66;100.00;100764.66;7395925;19;20031;-58
2022/05/09 02:11:11;;;;;;;1.23;0.70;;;;;;;10.63;100.00;100767.56;7394010;19;20081;-58
2022/05/09 02:13:37;;;;;;;1.23;0.82;;;;;;;10.70;100.00;100769.31;7394584;19;20028;-58
2022/05/09 02:16:04;;;;;;;6.40;1.10;;;;;;;10.82;100.00;100766.47;7394472;19;20097;-58
2022/05/09 02:18:32;;;;;;;5.82;1.27;;;;;;;10.77;100.00;100763.47;7394480;19;20015;-58
2022/05/09 02:20:58;;;;;;;0.93;0.85;;;;;;;10.68;100.00;100761.41;7392058;19;20357;-59
2022/05/09 02:23:24;;;;;;;1.33;0.73;;;;;;;10.56;100.00;100760.25;7392053;19;20015;-58
2022/05/09 02:25:50;;;;;;;1.10;1.00;;;;;;;10.71;100.00;100765.28;7395921;19;20019;-58
2022/05/09 02:28:17;;;;;;;6.28;1.98;;;;;;;10.65;100.00;100762.31;7392691;19;20018;-59
2022/05/09 02:30:43;;;;;;;1.27;1.05;;;;;;;10.57;100.00;100755.44;7390692;19;20022;-58
2022/05/09 02:33:10;;;;;;;4.63;0.75;;;;;;;10.61;100.00;100761.69;7393042;19;20070;-59
2022/05/09 02:35:40;;;;;;;0.77;0.77;;;;;;;10.61;100.00;100753.31;7393066;19;20774;-59
2022/05/09 02:38:07;;;;;;;3.15;1.00;;;;;;;10.55;100.00;100752.34;7392328;19;20520;-59
2022/05/09 02:40:34;;;;;;;3.17;1.08;;;;;;;10.59;100.00;100739.84;7396960;19;20359;-59
2022/05/09 02:43:01;;;;;;;5.47;1.55;;;;;;;10.55;100.00;100747.53;7392596;19;20038;-59
2022/05/09 02:45:27;;;;;;;3.03;1.38;;;;;;;10.68;100.00;100739.91;7393084;19;20017;-59
2022/05/09 02:47:55;;;;;;;0.95;0.60;;;;;;;10.75;100.00;100738.06;7393093;19;20035;-59
2022/05/09 02:50:22;;;;;;;8.75;1.60;;;;;;;10.73;100.00;100740.53;7393973;19;20736;-59
2022/05/09 02:52:50;;;;;;;1.33;0.70;;;;;;;10.77;100.00;100741.19;7393059;19;20424;-58
2022/05/09 02:55:18;;;;;;;2.65;0.95;;;;;;;10.72;100.00;100728.63;7393468;19;20052;-59
2022/05/09 02:57:44;;;;;;;1.55;0.93;;;;;;;10.64;100.00;100744.81;7392012;19;20007;-59
2022/05/09 03:00:24;;;;;;;1.33;0.98;;;;;;;10.42;100.00;100738.47;7395428;19;20393;-59
2022/05/09 03:05:39;;;;;;;1.30;0.90;;;;;;;10.51;100.00;100732.97;7393137;19;20471;-59
2022/05/09 03:08:06;;;;;;;8.68;1.65;;;;;;;10.47;100.00;100728.75;7393673;19;20638;-58
2022/05/09 03:10:32;;;;;;;1.17;0.50;;;;;;;10.31;100.00;100721.38;7395885;19;20110;-59
2022/05/09 03:13:00;;;;;;;1.80;0.85;;;;;;;10.21;100.00;100721.75;7393679;19;20010;-59
2022/05/09 03:15:33;;;;;;;6.18;1.10;;;;;;;10.38;100.00;100726.69;7394097;19;20015;-59
2022/05/09 03:17:59;;;;;;;2.80;1.45;;;;;;;10.46;100.00;100722.41;7394363;19;20463;-59
2022/05/09 03:20:25;;;;;;;3.92;1.27;;;;;;;10.25;100.00;100717.63;7398297;19;20006;-59
2022/05/09 03:22:52;;;;;;;0.60;0.60;;;;;;;10.35;100.00;100715.69;7398156;19;20011;-59
2022/05/09 03:25:18;;;;;;;8.43;1.13;;;;;;;10.45;100.00;100720.09;7393957;19;20015;-59
2022/05/09 03:27:44;;;;;;;1.13;0.63;;;;;;;10.45;100.00;100706.94;7391229;19;20017;-59
2022/05/09 03:30:15;;;;;;;2.92;1.88;;;;;;;10.35;100.00;100710.13;7393628;19;20022;-59
2022/05/09 03:32:41;;;;;;;2.55;1.45;;;;;;;10.23;100.00;100708.94;7392264;19;20011;-59
2022/05/09 03:35:09;;;;;;;0.68;0.55;;;;;;;10.20;100.00;100707.06;7388430;19;20097;-59
2022/05/09 03:37:36;;;;;;;2.50;1.00;;;;;;;10.26;100.00;100696.91;7391801;19;20039;-59
2022/05/09 03:40:03;;;;;;;2.55;0.95;;;;;;;10.40;100.00;100693.59;7391075;19;20031;-59
2022/05/09 03:42:30;;;;;;;1.92;0.82;;;;;;;10.34;100.00;100686.28;7389854;19;20402;-58
2022/05/09 03:44:56;;;;;;;3.08;1.02;;;;;;;10.53;100.00;100685.94;7390179;19;20074;-59
2022/05/09 03:47:22;;;;;;;1.60;0.57;;;;;;;10.68;100.00;100678.63;7391046;19;20557;-59
2022/05/09 03:49:50;;;;;;;3.40;1.23;;;;;;;10.68;100.00;100679.88;7392697;19;20010;-58
2022/05/09 03:52:16;;;;;;;6.05;1.15;;;;;;;10.79;100.00;100677.41;7390508;19;20023;-59
2022/05/09 03:54:46;;;;;;;1.30;1.23;;;;;;;10.89;100.00;100679.81;7390009;19;20035;-59
2022/05/09 03:57:50;;;;;;;0.65;0.55;;;;;;;10.83;100.00;100672.50;7384232;19;20022;-80
2022/05/09 04:00:18;;;;;;;6.88;1.80;;;;;;;10.88;100.00;100663.53;7388001;19;20026;-80
2022/05/09 04:02:45;;;;;;;4.57;0.65;;;;;;;10.84;100.00;100663.69;7381671;19;20029;-80
2022/05/09 04:05:16;;;;;;;1.40;0.50;;;;;;;10.91;100.00;100657.06;7379095;19;20445;-80
2022/05/09 04:07:48;;;;;;;1.30;0.97;;;;;;;11.10;100.00;100655.88;7384329;19;20017;-80
2022/05/09 04:10:17;;;;;;;2.13;1.08;;;;;;;11.19;100.00;100667.06;7389052;19;20282;-80
2022/05/09 04:12:43;;;;;;;1.52;0.85;;;;;;;11.17;100.00;100655.59;7386455;19;20078;-80
2022/05/09 04:17:55;;;;;;;2.90;1.05;;;;;;;11.32;100.00;100645.41;7391076;19;20420;-85
2022/05/09 04:20:23;;;;;;;1.77;1.00;;;;;;;11.41;100.00;100639.88;7399797;19;20011;-85
2022/05/09 04:22:51;;;;;;;1.83;0.50;;;;;;;11.45;100.00;100637.69;7395992;19;20010;-86
2022/05/09 04:25:19;;;;;;;4.07;1.67;;;;;;;11.46;100.00;100644.06;7393392;19;20037;-87
2022/05/09 04:27:47;;;;;;;1.13;1.02;;;;;;;11.42;100.00;100646.97;7391592;19;20093;-80
2022/05/09 04:30:13;;;;;;;3.80;0.80;;;;;;;11.38;100.00;100641.56;7389785;19;20924;-81
2022/05/09 04:32:40;;;;;;;3.13;0.85;;;;;;;11.41;100.00;100648.22;7387606;19;20018;-80
2022/05/09 04:35:14;;;;;;;1.95;1.45;;;;;;;11.26;100.00;100647.28;7385321;19;20052;-82
2022/05/09 04:37:43;;;;;;;1.73;1.13;;;;;;;11.14;100.00;100643.34;7399095;19;20026;-87
2022/05/09 04:40:11;;;;;;;1.67;1.20;;;;;;;10.94;100.00;100633.81;7397411;19;20014;-85
2022/05/09 04:42:37;;;;;;;4.30;1.30;;;;;;;10.91;100.00;100641.13;7395568;19;20015;-85
2022/05/09 04:45:03;;;;;;;2.63;1.20;;;;;;;10.94;100.00;100639.41;7391755;19;20015;-87
2022/05/09 04:47:29;;;;;;;2.28;0.93;;;;;;;11.01;100.00;100639.13;7401862;19;20025;-86
2022/05/09 04:49:55;;;;;;;3.08;0.82;;;;;;;10.81;100.00;100644.28;7401426;19;20015;-88
2022/05/09 04:52:22;;;;;;;2.92;0.85;;;;;;;11.03;100.00;100642.22;7400450;19;20025;-84
2022/05/09 04:54:50;;;;;;;1.92;1.10;;;;;;;11.08;100.00;100644.41;7396242;19;20441;-83
2022/05/09 04:57:16;;;;;;;2.95;1.70;;;;;;;11.11;100.00;100633.13;7392397;19;20025;-82
2022/05/09 04:59:42;;;;;;;1.45;1.17;;;;;;;11.19;100.00;100633.63;7398505;19;20032;-83
2022/05/09 05:02:09;;;;;;;2.28;0.88;;;;;;;11.34;100.00;100631.78;7394087;19;20011;-83
2022/05/09 05:04:35;;;;;;;0.28;0.28;;;;;;;11.61;100.00;100631.81;7394859;19;20671;-83
2022/05/09 05:07:01;;;;;;;0.77;0.77;;;;;;;11.51;100.00;100635.84;7393468;19;20010;-82
2022/05/09 05:09:28;;;;;;;2.85;0.82;;;;;;;11.58;100.00;100624.38;7395356;19;20484;-82
2022/05/09 05:11:54;;;;;;;5.57;1.65;;;;;;;11.63;100.00;100618.16;7396690;19;20078;-83
2022/05/09 05:14:20;;;;;;;1.38;0.85;;;;;;;11.52;100.00;100623.44;7397749;19;20049;-83
2022/05/09 05:17:01;;;;;;;1.60;1.27;;;;;;;11.60;100.00;100619.13;7395244;19;20598;-81
2022/05/09 05:19:33;;;;;;;1.08;0.93;;;;;;;11.78;100.00;100612.81;7398530;19;20014;-81
2022/05/09 05:22:02;;;;;;;3.70;0.80;;;;;;;11.79;100.00;100614.34;7393100;19;20018;-81
2022/05/09 05:24:33;;;;;;;2.55;1.25;;;;;;;12.05;100.00;100605.19;7393479;19;20045;-81
2022/05/09 05:26:59;;;;;;;0.83;0.70;;;;;;;12.18;100.00;100602.97;7397462;19;20021;-81
2022/05/09 05:29:25;;;;;;;1.15;1.08;;;;;;;12.27;100.00;100604.19;7395598;19;20018;-80
2022/05/09 05:31:53;;;;;;;5.38;1.05;;;;;;;12.40;100.00;100611.16;7392003;19;20037;-81
2022/05/09 05:34:19;;;;;;;1.70;1.42;;;;;;;12.52;100.00;100604.59;7390615;19;20030;-80
2022/05/09 05:36:46;;;;;;;1.45;0.85;;;;;;;12.57;100.00;100614.34;7390695;19;20613;-81
2022/05/09 05:39:15;;;;;;;2.40;0.90;;;;;;;12.61;100.00;100601.00;7394608;19;20018;-80
2022/05/09 05:41:43;;;;;;;1.27;1.17;;;;;;;12.71;100.00;100610.91;7391693;19;20035;-81
2022/05/09 05:44:11;;;;;;;2.78;0.93;;;;;;;12.77;100.00;100600.63;7392931;19;20026;-81
2022/05/09 05:46:39;;;;;;;6.55;2.65;;;;;;;12.76;100.00;100610.25;7391693;19;20462;-81
2022/05/09 05:49:06;;;;;;;5.18;1.15;;;;;;;12.82;100.00;100605.59;7394212;19;20022;-81
2022/05/09 05:51:32;;;;;;;2.03;0.73;;;;;;;12.95;100.00;100603.31;7392688;19;20010;-80
2022/05/09 05:53:58;;;;;;;2.95;1.67;;;;;;;13.12;100.00;100607.31;7392245;19;20483;-81
2022/05/09 05:56:25;;;;;;;4.00;1.38;;;;;;;13.23;100.00;100601.94;7395652;19;20018;-80
2022/05/09 05:58:51;;;;;;;6.13;1.48;;;;;;;13.27;100.00;100599.78;7393239;19;20026;-81
2022/05/09 06:01:18;;;;;;;1.15;1.05;;;;;;;13.36;100.00;100596.88;7393184;19;20444;-81
2022/05/09 06:03:45;;;;;;;1.17;1.08;;;;;;;13.41;100.00;100593.44;7391902;19;20484;-81
2022/05/09 06:06:13;;;;;;;1.23;0.73;;;;;;;13.42;100.00;100599.81;7392514;19;20025;-82
2022/05/09 06:08:40;;;;;;;6.10;1.85;;;;;;;13.44;100.00;100591.72;7392554;19;20010;-81
2022/05/09 06:11:13;;;;;;;1.95;1.20;;;;;;;13.53;100.00;100598.03;7392116;19;20102;-82
2022/05/09 06:13:41;;;;;;;1.00;0.82;;;;;;;13.66;100.00;100595.72;7393372;19;20026;-82
2022/05/09 06:16:07;;;;;;;1.75;0.77;;;;;;;13.76;100.00;100604.84;7391754;19;20022;-82
2022/05/09 06:18:34;;;;;;;1.90;1.17;;;;;;;13.76;100.00;100609.66;7394331;19;20019;-82
2022/05/09 06:21:00;;;;;;;4.05;0.80;;;;;;;13.75;100.00;100608.91;7390591;19;20022;-82
2022/05/09 06:23:27;;;;;;;2.72;0.85;;;;;;;13.60;100.00;100603.25;7396864;19;20074;-82
2022/05/09 06:25:54;;;;;;;0.88;0.45;;;;;;;13.87;100.00;100605.06;7395102;19;20425;-82
2022/05/09 06:28:22;;;;;;;2.67;1.10;;;;;;;13.80;100.00;100613.03;7393037;19;20779;-82
2022/05/09 06:30:48;;;;;;;4.03;1.40;;;;;;;13.89;100.00;100612.97;7389572;19;20037;-82
2022/05/09 06:33:25;;;;;;;2.17;1.40;;;;;;;13.97;100.00;100619.75;7391050;19;20029;-82
2022/05/09 06:35:53;;;;;;;1.45;1.35;;;;;;;14.14;100.00;100621.59;7392520;19;20018;-81
2022/05/09 06:38:20;;;;;;;0.43;0.20;;;;;;;14.16;100.00;100624.69;7394273;19;20022;-81
2022/05/09 06:40:47;;;;;;;2.42;0.93;;;;;;;14.29;100.00;100618.88;7397011;19;20010;-82
2022/05/09 06:43:13;;;;;;;3.50;1.13;;;;;;;14.35;100.00;100616.91;7395708;19;20015;-81
2022/05/09 06:45:41;;;;;;;5.45;1.42;;;;;;;14.48;100.00;100619.44;7392428;19;20082;-82
2022/05/09 06:48:09;;;;;;;1.77;1.20;;;;;;;14.50;100.00;100603.69;7394268;19;20025;-83
2022/05/09 06:50:36;;;;;;;2.35;0.82;;;;;;;14.54;100.00;100601.44;7393367;19;20531;-82
2022/05/09 06:53:06;;;;;;;1.70;0.80;;;;;;;14.74;100.00;100597.94;7393522;19;20021;-82
2022/05/09 06:55:32;;;;;;;2.95;1.08;;;;;;;14.77;100.00;100586.50;7390660;19;20018;-83
2022/05/09 06:57:58;;;;;;;3.22;1.08;;;;;;;14.91;100.00;100590.56;7396247;19;20019;-82
2022/05/09 07:00:25;;;;;;;4.43;2.03;;;;;;;14.92;100.00;100592.88;7394880;19;20019;-81
2022/05/09 07:02:52;;;;;;;2.63;1.33;;;;;;;15.09;100.00;100585.47;7393686;19;20010;-82
2022/05/09 07:05:20;;;;;;;3.50;0.98;;;;;;;15.25;100.00;100586.16;7390209;19;20021;-83
2022/05/09 07:07:48;;;;;;;0.60;0.50;;;;;;;15.29;100.00;100572.72;7393560;19;20149;-82
2022/05/09 07:10:15;;;;;;;1.50;0.90;;;;;;;15.14;100.00;100569.97;7397771;19;20023;-85
2022/05/09 07:12:50;;;;;;;0.85;0.85;;;;;;;15.29;100.00;100553.84;7395552;19;20365;-87
2022/05/09 07:15:22;;;;;;;2.28;1.02;;;;;;;15.29;100.00;100553.84;7395586;19;20042;-88
2022/05/09 07:17:50;;;;;;;1.90;1.08;;;;;;;15.33;100.00;100557.22;7399764;19;20029;-86
2022/05/09 07:20:17;;;;;;;2.72;1.10;;;;;;;15.48;100.00;100543.91;7401037;19;20034;-85
2022/05/09 07:22:55;;;;;;;2.97;1.48;;;;;;;15.54;100.00;100536.31;7395346;19;20021;-85
2022/05/09 07:25:23;;;;;;;5.63;1.20;;;;;;;15.56;100.00;100527.41;7397708;19;19998;-87
2022/05/09 07:27:50;;;;;;;1.13;0.65;;;;;;;15.60;100.00;100523.13;7397334;19;20051;-87
2022/05/09 07:30:19;;;;;;;5.32;1.13;;;;;;;15.62;100.00;100525.41;7397388;19;20017;-88
2022/05/09 07:32:46;;;;;;;3.47;1.73;;;;;;;15.62;100.00;100514.97;7396441;19;20014;-88
2022/05/09 07:35:16;;;;;;;0.65;0.50;;;;;;;15.67;100.00;100519.88;7399157;19;20015;-89
2022/05/09 07:37:42;;;;;;;3.10;1.80;;;;;;;15.71;100.00;100511.22;7396317;19;20392;-88
2022/05/09 07:40:12;;;;;;;5.15;1.27;;;;;;;15.98;100.00;100496.69;7397370;19;20018;-89
2022/05/09 07:42:40;;;;;;;2.38;0.75;;;;;;;16.19;100.00;100506.56;7393659;19;20022;-88
2022/05/09 07:45:08;;;;;;;6.03;1.20;;;;;;;16.51;100.00;100498.91;7394346;19;20082;-89
2022/05/09 07:47:34;;;;;;;0.90;0.82;;;;;;;16.83;100.00;100494.00;7396680;19;20026;-89
2022/05/09 07:50:01;;;;;;;4.03;1.55;;;;;;;17.01;100.00;100502.03;7397216;19;20010;-88
2022/05/09 07:52:27;;;;;;;2.95;0.43;;;;;;;17.21;100.00;100487.78;7392331;19;20014;-86
2022/05/09 07:54:53;;;;;;;1.33;0.65;;;;;;;17.45;100.00;100488.13;7391655;19;20019;-86
2022/05/09 07:57:19;;;;;;;1.45;0.55;;;;;;;17.60;100.00;100474.63;7392614;19;20505;-86
2022/05/09 07:59:45;;;;;;;2.00;0.75;;;;;;;17.75;100.00;100480.03;7395622;19;20089;-87
2022/05/09 08:02:11;;;;;;;2.70;0.57;;;;;;;17.73;100.00;100477.72;7394962;19;20015;-88
2022/05/09 08:04:37;;;;;;;1.50;0.28;;;;;;;17.80;100.00;100471.56;7395328;19;20002;-88
2022/05/09 08:07:04;;;;;;;2.70;0.75;;;;;;;17.79;100.00;100463.63;7395794;19;20019;-87
2022/05/09 08:09:30;;;;;;;5.40;0.40;;;;;;;17.90;100.00;100475.69;7395403;19;20490;-88
2022/05/09 08:11:58;;;;;;;1.65;0.52;;;;;;;18.05;100.00;100478.25;7398190;19;20032;-90
2022/05/09 08:14:25;;;;;;;3.17;1.08;;;;;;;18.13;100.00;100476.47;7395460;19;20042;-88
2022/05/09 08:16:51;;;;;;;4.90;0.65;;;;;;;18.07;100.00;100464.41;7393328;19;20035;-89
2022/05/09 08:19:18;;;;;;;0.40;0.40;;;;;;;18.11;100.00;100468.53;7397199;19;20010;-90
2022/05/09 08:21:50;;;;;;;0.60;0.60;;;;;;;18.13;100.00;100470.81;7394925;19;20047;-90
2022/05/09 08:24:17;;;;;;;2.67;0.50;;;;;;;18.28;100.00;100470.56;7394336;19;20357;-90
2022/05/09 08:26:44;;;;;;;3.85;0.60;;;;;;;18.21;100.00;100476.72;7394060;19;20014;-91
2022/05/09 08:29:10;;;;;;;1.02;0.65;;;;;;;18.16;100.00;100481.84;7393621;19;20014;-86
2022/05/09 08:31:37;;;;;;;0.45;0.25;;;;;;;18.17;100.00;100483.38;7393075;19;20051;-86
2022/05/09 08:34:03;;;;;;;2.05;0.70;;;;;;;18.37;100.00;100478.75;7395853;19;20021;-88
2022/05/09 08:39:15;;;;;;;2.20;0.43;;;;;;;18.35;100.00;100482.09;7398947;19;20059;-91
2022/05/09 08:41:57;;;;;;;1.92;0.32;;;;;;;18.49;100.00;100485.97;7404814;19;20011;-90
2022/05/09 08:44:23;;;;;;;1.77;1.10;;;;;;;18.59;100.00;100473.09;7395574;19;20050;-91
2022/05/09 08:46:59;;;;;;;4.88;0.98;;;;;;;18.72;100.00;100471.28;7385783;19;20030;-84
2022/05/09 08:49:28;;;;;;;0.60;0.30;;;;;;;18.93;100.00;100461.22;7389103;19;20015;-94
2022/05/09 08:52:18;;;;;;;1.17;0.70;;;;;;;18.96;100.00;100450.94;7398192;19;20014;-93
2022/05/09 08:54:45;;;;;;;5.47;1.35;;;;;;;19.09;100.00;100453.97;7394765;19;20011;-95
2022/05/09 08:57:18;;;;;;;1.27;0.75;;;;;;;19.10;100.00;100443.44;7390725;19;20041;-82
2022/05/09 08:59:56;;;;;;;2.65;0.35;;;;;;;19.01;100.00;100443.75;7387328;19;20022;-83
2022/05/09 09:02:38;;;;;;;3.22;0.43;;;;;;;18.98;100.00;100448.38;7385992;19;20053;-82
2022/05/09 09:05:05;;;;;;;1.63;0.43;;;;;;;19.16;100.00;100442.13;7382896;19;20022;-82
2022/05/09 09:07:50;;;;;;;2.05;0.43;;;;;;;19.52;100.00;100435.28;7385399;19;20022;-81
2022/05/09 09:10:39;;;;;;;0.40;0.10;;;;;;;19.62;100.00;100428.00;7388079;19;20038;-83
2022/05/09 09:13:23;;;;;;;0.57;0.43;;;;;;;19.66;100.00;100428.47;7387092;19;20358;-84
2022/05/09 09:16:15;;;;;;;1.27;0.13;;;;;;;19.98;100.00;100428.00;7383514;19;20583;-82
2022/05/09 09:19:18;;;;;;;1.35;0.22;;;;;;;20.41;100.00;100423.25;7386985;19;20476;-82
2022/05/09 09:21:57;;;;;;;1.08;0.10;;;;;;;20.60;100.00;100407.09;7386036;19;20026;-83
2022/05/09 09:24:38;;;;;;;0.65;0.50;;;;;;;20.69;100.00;100403.13;7384955;19;20015;-83
2022/05/09 09:27:23;;;;;;;0.77;0.40;;;;;;;20.72;100.00;100402.06;7383891;19;20018;-82
2022/05/09 09:29:56;;;;;;;0.25;0.15;;;;;;;20.67;98.67;100409.31;7385387;19;20082;-83
2022/05/09 09:32:23;;;;;;;2.15;0.47;;;;;;;20.65;100.00;100397.00;7383899;19;20010;-83
2022/05/09 09:35:00;;;;;;;1.70;0.22;;;;;;;20.71;99.94;100401.31;7392786;19;20036;-83
2022/05/09 09:38:03;;;;;;;0.90;0.20;;;;;;;20.57;100.00;100402.50;7394073;19;20065;-82
2022/05/09 09:40:29;;;;;;;4.50;0.65;;;;;;;20.58;100.00;100392.69;7394141;19;20037;-83
2022/05/09 09:42:56;;;;;;;1.77;0.50;;;;;;;20.78;100.00;100380.88;7390559;19;20010;-82
2022/05/09 09:45:34;;;;;;;2.72;0.30;;;;;;;20.80;99.21;100386.78;7389695;19;20649;-83
2022/05/09 09:48:22;;;;;;;1.60;0.73;;;;;;;20.81;100.00;100376.22;7392388;19;20014;-83
2022/05/09 09:50:58;;;;;;;0.77;0.22;;;;;;;20.97;100.00;100378.84;7390617;19;20019;-84
2022/05/09 09:53:49;;;;;;;1.02;0.13;;;;;;;20.97;99.73;100367.50;7391990;19;20520;-83
2022/05/09 09:56:21;;;;;;;1.90;0.10;;;;;;;20.68;98.79;100368.38;7390509;19;20778;-82
2022/05/09 09:58:52;;;;;;;2.67;0.47;;;;;;;20.70;99.06;100359.38;7391653;19;20118;-84
2022/05/09 10:01:30;;;;;;;12.45;0.80;;;;;;;20.71;99.39;100367.31;7393186;19;20014;-83
2022/05/09 10:04:26;;;;;;;2.38;0.30;;;;;;;20.68;98.79;100353.50;7390144;19;20029;-83
2022/05/09 10:06:55;;;;;;;0.68;0.40;;;;;;;20.68;99.17;100351.41;7387369;19;20055;-83
2022/05/09 10:09:22;;;;;;;0.55;0.35;;;;;;;20.79;100.00;100345.59;7391962;19;20491;-82
2022/05/09 10:11:48;;;;;;;3.00;0.30;;;;;;;20.83;99.58;100339.66;7393505;19;20433;-83
2022/05/09 10:14:35;;;;;;;0.65;0.20;;;;;;;20.84;99.30;100330.63;7389934;19;20025;-83
2022/05/09 10:17:26;;;;;;;5.28;0.45;;;;;;;21.02;100.00;100321.38;7388079;19;20019;-80
2022/05/09 10:19:54;;;;;;;2.85;0.40;;;;;;;20.99;100.00;100319.59;7391886;19;20014;-80
2022/05/09 10:25:33;;;;;;;0.80;0.28;;;;;;;21.13;99.69;100317.63;7388211;19;20042;-82
2022/05/09 10:28:12;;;;;;;3.42;0.35;;;;;;;21.28;100.00;100302.97;7391729;19;20752;-83
2022/05/09 10:30:42;;;;;;;1.55;0.40;;;;;;;21.39;98.67;100295.06;7393178;19;20025;-83
2022/05/09 10:33:08;;;;;;;1.73;0.68;;;;;;;21.61;99.05;100294.66;7389892;19;20018;-84
2022/05/09 10:35:56;;;;;;;3.78;0.40;;;;;;;21.67;96.73;100280.41;7385409;19;20031;-83
2022/05/09 10:38:32;;;;;;;0.63;0.40;;;;;;;21.63;97.45;100279.97;7385622;19;20023;-84
2022/05/09 10:41:09;;;;;;;1.05;0.43;;;;;;;21.78;96.43;100281.00;7386379;19;20021;-85
2022/05/09 10:43:41;;;;;;;1.63;0.43;;;;;;;22.00;97.75;100274.16;7385110;19;20022;-83
2022/05/09 10:46:11;;;;;;;1.33;0.38;;;;;;;21.99;96.73;100261.28;7383860;19;20022;-84
2022/05/09 10:48:49;;;;;;;1.25;0.40;;;;;;;21.90;97.45;100264.53;7386239;19;20420;-84
2022/05/09 10:51:35;;;;;;;1.63;0.40;;;;;;;22.26;96.24;100273.41;7385403;19;20026;-83
2022/05/09 10:54:23;;;;;;;1.45;0.30;;;;;;;22.32;93.46;100260.63;7389174;19;20035;-84
2022/05/09 10:57:17;;;;;;;5.00;0.40;;;;;;;22.47;95.11;100272.16;7387855;19;20093;-84
2022/05/09 10:59:45;;;;;;;4.28;0.93;;;;;;;22.69;95.79;100267.34;7390819;19;20014;-83
2022/05/09 11:02:33;;;;;;;8.10;0.50;;;;;;;22.69;94.91;100261.66;7390119;19;20018;-84
2022/05/09 11:05:00;;;;;;;2.10;0.50;;;;;;;22.95;96.40;100255.91;7388472;19;20090;-84
2022/05/09 11:07:29;;;;;;;2.60;0.25;;;;;;;23.13;95.95;100254.97;7388233;19;20456;-84
2022/05/09 11:10:25;;;;;;;0.65;0.10;;;;;;;23.02;94.07;100246.72;7389753;19;20026;-84
2022/05/09 11:13:30;;;;;;;0.98;0.25;;;;;;;23.06;96.35;100247.91;7386985;19;20358;-84
2022/05/09 11:16:14;;;;;;;1.30;0.03;;;;;;;23.15;97.24;100240.97;7386636;19;20522;-84
2022/05/09 11:18:53;;;;;;;0.70;0.30;;;;;;;23.15;95.23;100238.13;7387853;19;20014;-83
2022/05/09 11:21:47;;;;;;;1.48;0.80;;;;;;;23.03;98.31;100237.63;7387492;19;20010;-84
2022/05/09 11:24:56;;;;;;;6.07;0.70;;;;;;;22.47;97.84;100235.28;7388724;19;20018;-84
2022/05/09 11:28:13;;;;;;;2.45;0.17;;;;;;;22.45;98.89;100217.25;7388143;19;20020;-83
2022/05/09 11:30:45;;;;;;;2.13;0.80;;;;;;;22.34;99.22;100218.25;7387931;19;20022;-84
2022/05/09 11:33:58;;;;;;;3.10;0.50;;;;;;;22.32;100.00;100198.19;7384744;19;20022;-82
2022/05/09 11:37:00;;;;;;;1.00;0.30;;;;;;;22.33;99.56;100202.53;7383468;19;20438;-82
2022/05/09 11:39:29;;;;;;;6.65;0.77;;;;;;;22.20;100.00;100202.56;7389707;19;20022;-82
2022/05/09 11:45:09;;;;;;;6.43;0.93;;;;;;;22.08;100.00;100206.94;7386690;19;20027;-83
2022/05/09 11:47:46;;;;;;;1.17;0.30;;;;;;;22.25;100.00;100198.84;7387305;19;20472;-84
2022/05/09 11:50:26;;;;;;;3.13;0.70;;;;;;;22.45;100.00;100194.56;7388812;19;20015;-84
2022/05/09 11:52:57;;;;;;;1.58;0.52;;;;;;;22.65;100.00;100182.50;7387778;19;20021;-84
2022/05/09 11:55:26;;;;;;;3.08;0.68;;;;;;;22.89;100.00;100181.44;7384737;19;20022;-84